03/29 17:00 更新

800ftに雲が少し
1,200ftに雲が多い
2,000ftに雲が多い

地上風: 360°7kt

上空風(熊谷ウインドプロファイラ)
13,000ft: 未計測
10,000ft: 250°13kt
 7,000ft: 0°4kt
 3,000ft: 20°15kt

地上: 3℃
上空: -9.7℃

日没: 18:00

実況天気図


予想天気図


RJTJ 290800Z 36007KT 9999 FEW008 BKN012 BKN020 03/01 Q1018 RMK 1ST008 6SC012 7SC020 A3009=

GPV気象予報
気象庁
日本気象協会

玉淀ダム放流量(1,000m3/sを超えた7時間後にDZ冠水)
太郎衛門橋テレメータ水位(11mでDZ冠水)

skydive.jp